createdAt,value
2017-07-16T00:00:12.271Z,3.50
2017-07-16T00:02:47.937Z,3.63
2017-07-16T00:05:22.559Z,3.97
2017-07-16T00:07:57.468Z,4.00
2017-07-16T00:10:32.511Z,4.37
2017-07-16T00:13:08.261Z,4.80
2017-07-16T00:15:43.352Z,4.90
2017-07-16T00:18:18.445Z,4.77
2017-07-16T00:20:53.600Z,4.00
2017-07-16T00:23:28.849Z,4.10
2017-07-16T00:26:04.194Z,4.50
2017-07-16T00:28:39.254Z,4.10
2017-07-16T00:31:13.909Z,4.37
2017-07-16T00:33:50.066Z,3.80
2017-07-16T00:36:29.921Z,4.23
2017-07-16T00:39:05.569Z,3.80
2017-07-16T00:41:39.824Z,6.30
2017-07-16T00:44:14.836Z,5.70
2017-07-16T00:46:50.221Z,5.50
2017-07-16T00:49:25.464Z,4.43
2017-07-16T00:51:52.760Z,3.83
2017-07-16T00:54:20.008Z,3.93
2017-07-16T00:56:47.522Z,4.00
2017-07-16T00:59:21.651Z,4.13
2017-07-16T01:01:56.627Z,4.10
2017-07-16T01:07:20.789Z,4.30
2017-07-16T01:10:01.492Z,4.00
2017-07-16T01:12:42.121Z,4.47
2017-07-16T01:15:17.233Z,4.73
2017-07-16T01:17:51.742Z,4.30
2017-07-16T01:20:27.574Z,4.20
2017-07-16T01:23:02.699Z,4.93
2017-07-16T01:25:37.999Z,4.90
2017-07-16T01:28:12.526Z,4.50
2017-07-16T01:30:48.184Z,4.20
2017-07-16T01:33:22.744Z,4.60
2017-07-16T01:35:57.836Z,4.40
2017-07-16T01:38:32.460Z,4.67
2017-07-16T01:41:07.468Z,4.60
2017-07-16T01:43:42.829Z,4.50
2017-07-16T01:46:17.987Z,5.07
2017-07-16T01:48:52.478Z,4.30
2017-07-16T01:51:27.544Z,4.07
2017-07-16T01:54:03.234Z,4.60
2017-07-16T01:56:37.861Z,4.13
2017-07-16T01:59:12.995Z,4.30
2017-07-16T02:01:48.186Z,4.60
2017-07-16T02:04:22.792Z,3.80
2017-07-16T02:06:58.698Z,3.90
2017-07-16T02:09:33.262Z,4.23
2017-07-16T02:12:08.447Z,4.50
2017-07-16T02:14:41.274Z,3.80
2017-07-16T02:17:15.419Z,3.70
2017-07-16T02:19:51.251Z,3.43
2017-07-16T02:22:25.901Z,3.97
2017-07-16T02:25:01.751Z,4.03
2017-07-16T02:27:37.413Z,4.37
2017-07-16T02:30:12.729Z,3.87
2017-07-16T02:32:47.791Z,4.33
2017-07-16T02:35:22.321Z,3.53
2017-07-16T02:37:57.562Z,3.80
2017-07-16T02:40:32.186Z,3.63
2017-07-16T02:43:08.316Z,4.43
2017-07-16T02:45:42.827Z,3.63
2017-07-16T02:48:18.008Z,4.00
2017-07-16T02:50:52.435Z,3.97
2017-07-16T02:53:27.625Z,3.90
2017-07-16T02:56:02.317Z,4.30
2017-07-16T02:58:37.377Z,4.10
2017-07-16T03:01:11.908Z,3.90
2017-07-16T03:03:47.019Z,4.10
2017-07-16T03:06:21.585Z,3.67
2017-07-16T03:08:56.430Z,4.90
2017-07-16T03:11:31.776Z,4.30
2017-07-16T03:14:07.521Z,3.60
2017-07-16T03:16:42.148Z,3.97
2017-07-16T03:19:18.616Z,3.20
2017-07-16T03:21:53.764Z,3.47
2017-07-16T03:24:29.923Z,3.63
2017-07-16T03:27:05.786Z,3.40
2017-07-16T03:29:40.791Z,3.23
2017-07-16T03:32:15.869Z,3.40
2017-07-16T03:34:51.574Z,3.40
2017-07-16T03:37:26.174Z,3.30
2017-07-16T03:40:01.342Z,3.63
2017-07-16T03:42:36.683Z,3.43
2017-07-16T03:45:11.687Z,3.47
2017-07-16T03:47:46.325Z,3.70
2017-07-16T03:50:21.396Z,4.00
2017-07-16T03:52:56.420Z,3.93
2017-07-16T03:55:30.839Z,3.60
2017-07-16T03:58:06.186Z,3.60
2017-07-16T04:00:40.745Z,3.17
2017-07-16T04:03:09.219Z,3.67
2017-07-16T04:05:36.056Z,3.20
2017-07-16T04:08:02.905Z,3.80
2017-07-16T04:10:29.863Z,3.27
2017-07-16T04:12:57.267Z,3.03
2017-07-16T04:15:31.791Z,3.77
2017-07-16T04:18:07.175Z,3.40
2017-07-16T04:20:42.502Z,4.00
2017-07-16T04:23:17.366Z,3.60
2017-07-16T04:25:52.547Z,3.63
2017-07-16T04:28:32.168Z,3.33
2017-07-16T04:31:07.115Z,3.47
2017-07-16T04:33:42.253Z,3.07
2017-07-16T04:36:17.899Z,3.50
2017-07-16T04:38:52.624Z,3.53
2017-07-16T04:41:27.608Z,3.27
2017-07-16T04:44:02.128Z,3.90
2017-07-16T04:46:37.186Z,3.70
2017-07-16T04:49:12.505Z,3.10
2017-07-16T04:51:47.702Z,3.57
2017-07-16T04:54:22.398Z,2.80
2017-07-16T04:56:57.622Z,3.20
2017-07-16T04:59:32.818Z,3.43
2017-07-16T05:02:07.747Z,3.43
2017-07-16T05:04:42.295Z,2.90
2017-07-16T05:07:17.506Z,3.23
2017-07-16T05:09:52.889Z,3.67
2017-07-16T05:12:28.121Z,3.57
2017-07-16T05:15:03.036Z,3.67
2017-07-16T05:17:38.215Z,3.47
2017-07-16T05:20:13.627Z,3.40
2017-07-16T05:22:48.634Z,3.03
2017-07-16T05:25:24.353Z,3.07
2017-07-16T05:27:59.012Z,3.23
2017-07-16T05:30:34.131Z,3.20
2017-07-16T05:33:08.829Z,3.30
2017-07-16T05:35:43.968Z,3.63
2017-07-16T05:38:18.604Z,3.90
2017-07-16T05:40:54.280Z,3.40
2017-07-16T05:43:29.332Z,4.27
2017-07-16T05:46:03.952Z,3.43
2017-07-16T05:48:39.964Z,4.27
2017-07-16T05:51:14.797Z,3.23
2017-07-16T05:53:49.976Z,3.10
2017-07-16T05:56:25.361Z,3.10
2017-07-16T05:59:00.596Z,3.60
2017-07-16T06:01:35.149Z,3.43
2017-07-16T06:04:10.153Z,3.77
2017-07-16T06:06:44.571Z,3.50
2017-07-16T06:09:19.672Z,3.30
2017-07-16T06:11:54.186Z,3.57
2017-07-16T06:14:30.170Z,3.73
2017-07-16T06:17:05.491Z,3.00
2017-07-16T06:19:40.473Z,3.03
2017-07-16T06:22:17.353Z,3.43
2017-07-16T06:24:48.053Z,2.77
2017-07-16T06:27:23.127Z,3.27
2017-07-16T06:29:50.958Z,3.00
2017-07-16T06:32:18.927Z,3.60
2017-07-16T06:34:51.288Z,2.90
2017-07-16T06:37:26.757Z,3.67
2017-07-16T06:40:02.468Z,3.60
2017-07-16T06:42:35.740Z,2.40
2017-07-16T06:45:11.264Z,2.90
2017-07-16T06:47:47.277Z,3.30
2017-07-16T06:50:21.302Z,3.07
2017-07-16T06:52:57.100Z,2.90
2017-07-16T06:55:36.127Z,2.60
2017-07-16T06:58:13.507Z,2.37
2017-07-16T07:00:52.115Z,2.77
2017-07-16T07:03:26.637Z,3.07
2017-07-16T07:06:02.695Z,3.30
2017-07-16T07:08:36.062Z,2.83
2017-07-16T07:11:07.439Z,2.60
2017-07-16T07:13:43.321Z,2.80
2017-07-16T07:16:18.187Z,2.60
2017-07-16T07:18:54.511Z,3.13
2017-07-16T07:24:14.347Z,2.87
2017-07-16T07:29:37.077Z,2.90
2017-07-16T07:34:47.112Z,2.53
2017-07-16T07:37:23.892Z,3.40
2017-07-16T07:40:02.757Z,2.83
2017-07-16T07:42:40.594Z,3.23
2017-07-16T07:45:11.677Z,3.20
2017-07-16T07:47:49.895Z,2.83
2017-07-16T07:50:23.499Z,3.17
2017-07-16T07:53:04.079Z,3.23
2017-07-16T07:55:40.057Z,3.23
2017-07-16T07:58:19.031Z,3.10
2017-07-16T08:00:50.288Z,3.00
2017-07-16T08:03:23.173Z,3.40
2017-07-16T08:05:57.996Z,3.07
2017-07-16T08:08:33.206Z,3.20
2017-07-16T08:11:07.931Z,3.10
2017-07-16T08:13:51.044Z,3.30
2017-07-16T08:16:32.997Z,2.83
2017-07-16T08:19:12.959Z,2.83
2017-07-16T08:21:52.665Z,3.07
2017-07-16T08:24:31.679Z,2.90
2017-07-16T08:27:10.953Z,2.90
2017-07-16T08:29:45.896Z,2.63
2017-07-16T08:32:21.812Z,3.00
2017-07-16T08:35:02.980Z,2.67
2017-07-16T08:37:41.755Z,2.87
2017-07-16T08:40:20.645Z,2.53
2017-07-16T08:42:56.794Z,2.90
2017-07-16T08:48:13.367Z,2.90
2017-07-16T08:50:48.316Z,2.53
2017-07-16T08:53:24.045Z,2.40
2017-07-16T08:56:01.973Z,2.70
2017-07-16T08:58:36.575Z,2.40
2017-07-16T09:01:05.063Z,2.90
2017-07-16T09:03:33.444Z,2.47
2017-07-16T09:06:05.702Z,2.30
2017-07-16T09:08:37.921Z,2.57
2017-07-16T09:11:10.253Z,2.93
2017-07-16T09:13:43.748Z,2.27
2017-07-16T09:16:17.911Z,2.60
2017-07-16T09:18:46.753Z,2.50
2017-07-16T09:21:16.494Z,2.63
2017-07-16T09:23:49.931Z,2.47
2017-07-16T09:26:21.750Z,2.10
2017-07-16T09:28:56.617Z,2.53
2017-07-16T09:31:27.584Z,2.77
2017-07-16T09:34:02.028Z,2.50
2017-07-16T09:36:36.112Z,2.90
2017-07-16T09:39:11.723Z,3.20
2017-07-16T09:41:46.164Z,2.60
2017-07-16T09:44:19.667Z,2.73
2017-07-16T09:46:52.457Z,2.70
2017-07-16T09:49:29.281Z,3.00
2017-07-16T09:52:00.355Z,3.63
2017-07-16T09:54:33.307Z,2.80
2017-07-16T09:57:06.697Z,2.87
2017-07-16T09:59:41.988Z,2.87
2017-07-16T10:02:14.352Z,3.20
2017-07-16T10:04:46.171Z,2.80
2017-07-16T10:07:18.907Z,3.20
2017-07-16T10:09:55.597Z,2.77
2017-07-16T10:12:33.889Z,2.73
2017-07-16T10:15:13.106Z,2.40
2017-07-16T10:17:46.006Z,2.77
2017-07-16T10:20:21.149Z,2.70
2017-07-16T10:22:53.044Z,2.30
2017-07-16T10:25:27.106Z,2.40
2017-07-16T10:27:58.272Z,2.10
2017-07-16T10:30:29.511Z,1.87
2017-07-16T10:33:07.594Z,2.17
2017-07-16T10:35:40.719Z,2.50
2017-07-16T10:38:21.262Z,2.23
2017-07-16T10:40:55.713Z,2.87
2017-07-16T10:43:29.628Z,2.43
2017-07-16T10:46:06.294Z,2.80
2017-07-16T10:48:41.164Z,2.23
2017-07-16T10:51:10.915Z,2.23
2017-07-16T10:53:44.669Z,2.23
2017-07-16T10:56:18.394Z,2.40
2017-07-16T10:58:58.620Z,2.40
2017-07-16T11:01:28.763Z,2.50
2017-07-16T11:04:05.486Z,2.30
2017-07-16T11:06:41.525Z,2.43
2017-07-16T11:09:16.676Z,2.50
2017-07-16T11:11:49.194Z,2.50
2017-07-16T11:14:22.477Z,2.63
2017-07-16T11:16:55.405Z,2.47
2017-07-16T11:19:29.559Z,3.57
2017-07-16T11:22:03.061Z,2.70
2017-07-16T11:24:36.813Z,2.63
2017-07-16T11:27:09.328Z,2.57
2017-07-16T11:29:42.153Z,2.80
2017-07-16T11:32:16.083Z,2.03
2017-07-16T11:34:49.873Z,2.30
2017-07-16T11:37:23.671Z,2.80
2017-07-16T11:39:58.031Z,2.60
2017-07-16T11:42:31.113Z,3.00
2017-07-16T11:45:04.079Z,3.00
2017-07-16T11:47:38.460Z,3.10
2017-07-16T11:50:13.437Z,2.90
2017-07-16T11:52:47.292Z,3.10
2017-07-16T11:55:20.730Z,3.27
2017-07-16T11:57:49.692Z,3.47
2017-07-16T12:00:17.911Z,3.07
2017-07-16T12:02:46.340Z,3.20
2017-07-16T12:05:13.337Z,3.33
2017-07-16T12:07:40.172Z,4.00
2017-07-16T12:10:07.735Z,3.53
2017-07-16T12:12:35.381Z,3.50
2017-07-16T12:15:02.236Z,3.17
2017-07-16T12:17:29.892Z,3.00
2017-07-16T12:19:57.545Z,3.30
2017-07-16T12:22:25.498Z,3.13
2017-07-16T12:24:52.487Z,3.30
2017-07-16T12:27:19.338Z,3.83
2017-07-16T12:29:46.225Z,3.67
2017-07-16T12:32:13.035Z,2.97
2017-07-16T12:34:39.981Z,3.13
2017-07-16T12:37:06.802Z,4.03
2017-07-16T12:39:37.916Z,3.70
2017-07-16T12:42:04.828Z,3.60
2017-07-16T12:44:31.861Z,3.47
2017-07-16T12:46:58.815Z,3.03
2017-07-16T12:49:25.855Z,2.80
2017-07-16T12:51:52.875Z,3.43
2017-07-16T12:54:20.538Z,3.00
2017-07-16T12:56:48.125Z,3.57
2017-07-16T12:59:14.958Z,3.70
2017-07-16T13:01:42.605Z,2.80
2017-07-16T13:04:09.436Z,3.10
2017-07-16T13:06:36.254Z,3.30
2017-07-16T13:09:03.426Z,2.97
2017-07-16T13:11:30.407Z,2.63
2017-07-16T13:13:57.461Z,3.20
2017-07-16T13:16:24.447Z,3.03
2017-07-16T13:18:51.293Z,3.23
2017-07-16T13:21:18.511Z,2.77
2017-07-16T13:23:45.411Z,2.70
2017-07-16T13:26:12.225Z,3.93
2017-07-16T13:28:39.124Z,2.57
2017-07-16T13:31:06.694Z,2.80
2017-07-16T13:33:34.270Z,3.43
2017-07-16T13:36:01.200Z,3.10
2017-07-16T13:38:28.880Z,3.33
2017-07-16T13:40:55.858Z,2.53
2017-07-16T13:43:22.888Z,2.57
2017-07-16T13:45:49.951Z,2.70
2017-07-16T13:48:16.788Z,2.83
2017-07-16T13:50:43.621Z,3.70
2017-07-16T13:53:10.548Z,3.17
2017-07-16T13:55:38.144Z,3.30
2017-07-16T13:58:04.989Z,3.30
2017-07-16T14:00:32.046Z,3.43
2017-07-16T14:02:58.993Z,2.77
2017-07-16T14:05:26.009Z,2.70
2017-07-16T14:07:53.065Z,3.00
2017-07-16T14:10:19.948Z,2.90
2017-07-16T14:12:46.860Z,2.40
2017-07-16T14:15:13.679Z,2.83
2017-07-16T14:17:41.257Z,3.40
2017-07-16T14:20:08.165Z,2.90
2017-07-16T14:22:35.862Z,2.97
2017-07-16T14:25:02.895Z,3.10
2017-07-16T14:27:29.852Z,2.93
2017-07-16T14:29:56.815Z,2.50
2017-07-16T14:32:23.738Z,2.57
2017-07-16T14:34:50.589Z,2.63
2017-07-16T14:37:17.562Z,2.67
2017-07-16T14:39:44.403Z,2.30
2017-07-16T14:42:11.240Z,3.03
2017-07-16T14:44:38.370Z,2.77
2017-07-16T14:47:05.310Z,2.50
2017-07-16T14:49:32.266Z,3.13
2017-07-16T14:51:59.336Z,2.57
2017-07-16T14:54:26.231Z,3.10
2017-07-16T14:56:53.913Z,2.20
2017-07-16T14:59:21.548Z,3.00
2017-07-16T15:01:48.424Z,2.40
2017-07-16T15:04:15.332Z,2.77
2017-07-16T15:06:46.393Z,2.50
2017-07-16T15:09:13.327Z,2.63
2017-07-16T15:11:40.257Z,2.73
2017-07-16T15:14:07.079Z,3.27
2017-07-16T15:16:33.918Z,3.00
2017-07-16T15:19:00.835Z,2.90
2017-07-16T15:21:27.667Z,2.80
2017-07-16T15:23:55.239Z,3.80
2017-07-16T15:26:22.907Z,3.07
2017-07-16T15:28:49.743Z,2.87
2017-07-16T15:31:17.372Z,2.87
2017-07-16T15:33:44.264Z,2.73
2017-07-16T15:36:11.102Z,2.50
2017-07-16T15:38:37.926Z,3.10
2017-07-16T15:41:05.567Z,3.07
2017-07-16T15:43:32.468Z,3.60
2017-07-16T15:45:59.311Z,3.00
2017-07-16T15:48:26.215Z,3.17
2017-07-16T15:50:53.064Z,2.70
2017-07-16T15:53:20.704Z,3.27
2017-07-16T15:55:47.590Z,3.33
2017-07-16T15:58:14.503Z,3.17
2017-07-16T16:00:41.501Z,4.07
2017-07-16T16:03:08.383Z,2.40
2017-07-16T16:05:35.236Z,3.20
2017-07-16T16:08:02.132Z,3.50
2017-07-16T16:10:28.975Z,3.37
2017-07-16T16:12:55.825Z,3.70
2017-07-16T16:15:22.705Z,3.47
2017-07-16T16:17:49.587Z,3.30
2017-07-16T16:20:17.236Z,2.90
2017-07-16T16:22:44.898Z,3.37
2017-07-16T16:25:11.715Z,3.50
2017-07-16T16:27:38.859Z,3.27
2017-07-16T16:30:05.789Z,4.20
2017-07-16T16:32:33.089Z,4.13
2017-07-16T16:35:00.513Z,3.70
2017-07-16T16:37:27.581Z,11.80
2017-07-16T16:39:54.410Z,5.83
2017-07-16T16:42:21.312Z,3.33
2017-07-16T16:44:48.317Z,3.60
2017-07-16T16:47:17.734Z,3.60
2017-07-16T16:49:54.411Z,3.97
2017-07-16T16:52:22.793Z,3.77
2017-07-16T16:55:02.021Z,3.80
2017-07-16T16:57:29.395Z,3.90
2017-07-16T16:59:56.237Z,3.90
2017-07-16T17:02:23.069Z,4.03
2017-07-16T17:04:49.979Z,4.27
2017-07-16T17:07:16.803Z,3.53
2017-07-16T17:09:43.636Z,3.97
2017-07-16T17:12:10.550Z,3.77
2017-07-16T17:14:37.377Z,3.50
2017-07-16T17:17:04.188Z,4.03
2017-07-16T17:19:31.100Z,4.07
2017-07-16T17:21:57.995Z,4.10
2017-07-16T17:24:24.831Z,4.60
2017-07-16T17:26:51.738Z,4.20
2017-07-16T17:29:18.563Z,3.70
2017-07-16T17:31:45.458Z,3.57
2017-07-16T17:34:12.370Z,3.97
2017-07-16T17:36:39.232Z,4.23
2017-07-16T17:39:06.050Z,4.00
2017-07-16T17:41:33.745Z,4.70
2017-07-16T17:44:00.633Z,4.00
2017-07-16T17:46:27.469Z,3.87
2017-07-16T17:48:54.382Z,3.73
2017-07-16T17:51:21.210Z,4.13
2017-07-16T17:53:48.116Z,4.00
2017-07-16T17:56:15.083Z,4.10
2017-07-16T17:58:42.656Z,4.90
2017-07-16T18:01:09.520Z,6.00
2017-07-16T18:03:36.467Z,5.07
2017-07-16T18:06:03.306Z,5.10
2017-07-16T18:08:30.226Z,5.13
2017-07-16T18:10:57.884Z,4.20
2017-07-16T18:13:25.590Z,4.13
2017-07-16T18:15:53.061Z,5.00
2017-07-16T18:18:19.877Z,4.50
2017-07-16T18:20:47.426Z,4.20
2017-07-16T18:23:14.413Z,4.80
2017-07-16T18:25:41.266Z,4.30
2017-07-16T18:28:08.188Z,4.40
2017-07-16T18:30:35.020Z,4.20
2017-07-16T18:33:01.860Z,4.87
2017-07-16T18:35:28.859Z,5.40
2017-07-16T18:37:55.835Z,5.00
2017-07-16T18:40:23.420Z,4.93
2017-07-16T18:42:50.230Z,4.70
2017-07-16T18:45:17.907Z,4.07
2017-07-16T18:47:45.510Z,4.50
2017-07-16T18:50:12.344Z,4.57
2017-07-16T18:52:39.262Z,5.30
2017-07-16T18:55:06.111Z,4.07
2017-07-16T18:57:33.019Z,4.90
2017-07-16T18:59:59.937Z,4.13
2017-07-16T19:02:26.777Z,4.57
2017-07-16T19:04:53.601Z,4.73
2017-07-16T19:07:20.496Z,5.37
2017-07-16T19:09:47.337Z,4.47
2017-07-16T19:12:14.267Z,5.00
2017-07-16T19:14:41.098Z,4.50
2017-07-16T19:17:07.983Z,5.00
2017-07-16T19:19:34.928Z,4.80
2017-07-16T19:22:01.746Z,5.40
2017-07-16T19:24:28.564Z,4.60
2017-07-16T19:26:55.471Z,5.37
2017-07-16T19:29:23.038Z,5.83
2017-07-16T19:31:50.599Z,5.87
2017-07-16T19:34:18.242Z,7.70
2017-07-16T19:36:45.073Z,7.20
2017-07-16T19:39:11.950Z,6.80
2017-07-16T19:41:39.600Z,7.07
2017-07-16T19:44:07.237Z,6.33
2017-07-16T19:46:34.063Z,6.93
2017-07-16T19:49:00.977Z,5.97
2017-07-16T19:51:27.821Z,5.30
2017-07-16T19:53:54.666Z,4.43
2017-07-16T19:56:21.693Z,6.10
2017-07-16T19:58:49.450Z,5.67
2017-07-16T20:01:17.096Z,5.60
2017-07-16T20:03:44.143Z,5.33
2017-07-16T20:06:11.063Z,4.67
2017-07-16T20:08:38.028Z,6.30
2017-07-16T20:11:05.052Z,5.87
2017-07-16T20:13:31.899Z,5.80
2017-07-16T20:15:58.720Z,5.83
2017-07-16T20:18:25.610Z,6.63
2017-07-16T20:20:52.456Z,6.70
2017-07-16T20:23:19.342Z,5.63
2017-07-16T20:25:46.927Z,6.00
2017-07-16T20:28:13.828Z,5.87
2017-07-16T20:30:41.448Z,6.07
2017-07-16T20:33:08.337Z,6.60
2017-07-16T20:35:35.892Z,6.27
2017-07-16T20:38:03.475Z,6.00
2017-07-16T20:40:31.136Z,5.40
2017-07-16T20:42:58.700Z,6.50
2017-07-16T20:45:25.532Z,6.90
2017-07-16T20:47:53.205Z,6.50
2017-07-16T20:50:20.784Z,7.13
2017-07-16T20:52:47.605Z,6.83
2017-07-16T20:55:15.255Z,7.43
2017-07-16T20:57:42.834Z,7.30
2017-07-16T21:00:13.265Z,7.30
2017-07-16T21:02:41.843Z,8.23
2017-07-16T21:05:09.013Z,7.80
2017-07-16T21:07:35.948Z,6.70
2017-07-16T21:10:02.770Z,8.80
2017-07-16T21:12:31.487Z,7.03
2017-07-16T21:14:58.439Z,7.70
2017-07-16T21:17:25.272Z,6.80
2017-07-16T21:19:52.107Z,7.07
2017-07-16T21:22:19.743Z,7.17
2017-07-16T21:24:46.571Z,7.97
2017-07-16T21:27:13.454Z,7.67
2017-07-16T21:29:41.025Z,7.70
2017-07-16T21:32:07.916Z,8.40
2017-07-16T21:34:34.726Z,10.17
2017-07-16T21:37:01.624Z,9.30
2017-07-16T21:39:28.509Z,7.17
2017-07-16T21:41:55.324Z,7.77
2017-07-16T21:44:22.190Z,7.90
2017-07-16T21:46:49.107Z,8.33
2017-07-16T21:49:15.912Z,7.17
2017-07-16T21:51:42.733Z,6.87
2017-07-16T21:54:09.651Z,7.70
2017-07-16T21:56:37.412Z,8.20
2017-07-16T21:59:05.146Z,8.40
2017-07-16T22:01:32.083Z,8.40
2017-07-16T22:03:58.915Z,8.00
2017-07-16T22:06:25.768Z,8.30
2017-07-16T22:08:52.726Z,7.40
2017-07-16T22:11:19.576Z,8.07
2017-07-16T22:13:47.569Z,7.90
2017-07-16T22:16:15.164Z,8.73
2017-07-16T22:18:42.121Z,8.30
2017-07-16T22:21:08.969Z,7.30
2017-07-16T22:23:35.811Z,8.63
2017-07-16T22:26:02.745Z,8.17
2017-07-16T22:28:29.581Z,8.03
2017-07-16T22:30:56.425Z,8.10
2017-07-16T22:33:28.742Z,8.67
2017-07-16T22:35:55.887Z,9.40
2017-07-16T22:38:22.827Z,8.40
2017-07-16T22:40:49.656Z,8.30
2017-07-16T22:43:16.539Z,7.70
2017-07-16T22:45:43.444Z,7.47
2017-07-16T22:48:10.283Z,7.37
2017-07-16T22:50:37.257Z,7.43
2017-07-16T22:53:04.225Z,6.93
2017-07-16T22:55:31.064Z,7.83
2017-07-16T22:57:57.905Z,7.87
2017-07-16T23:00:24.791Z,6.90
2017-07-16T23:02:52.435Z,7.50
2017-07-16T23:05:19.323Z,7.40
2017-07-16T23:07:46.158Z,8.30
2017-07-16T23:10:13.071Z,7.37
2017-07-16T23:12:40.719Z,7.50
2017-07-16T23:15:07.568Z,7.67
2017-07-16T23:17:34.481Z,8.67
2017-07-16T23:20:01.320Z,8.03
2017-07-16T23:22:33.346Z,7.63
2017-07-16T23:25:01.012Z,8.10
2017-07-16T23:27:28.596Z,7.87
2017-07-16T23:29:55.531Z,8.13
2017-07-16T23:32:22.403Z,8.53
2017-07-16T23:34:49.255Z,7.30
2017-07-16T23:37:16.242Z,7.20
2017-07-16T23:39:43.903Z,7.90
2017-07-16T23:42:10.748Z,8.50
2017-07-16T23:44:38.348Z,7.40
2017-07-16T23:47:05.289Z,8.40
2017-07-16T23:49:32.100Z,8.87
2017-07-16T23:51:59.016Z,8.40
2017-07-16T23:54:25.912Z,7.60
2017-07-16T23:56:52.799Z,7.57
2017-07-16T23:59:19.709Z,8.40
